sensor_id;sensor_type;location;lat;lon;timestamp;P1;durP1;ratioP1;P2;durP2;ratioP2
58876;SDS011;44659;47.002;9.536;2024-01-07T00:00:17;6.00;;;3.22;;
58876;SDS011;44659;47.002;9.536;2024-01-07T00:02:43;4.53;;;2.97;;
58876;SDS011;44659;47.002;9.536;2024-01-07T00:05:09;4.88;;;3.30;;
58876;SDS011;44659;47.002;9.536;2024-01-07T00:07:34;4.65;;;3.08;;
58876;SDS011;44659;47.002;9.536;2024-01-07T00:10:00;4.32;;;2.85;;
58876;SDS011;44659;47.002;9.536;2024-01-07T00:12:25;5.10;;;2.92;;
58876;SDS011;44659;47.002;9.536;2024-01-07T00:14:51;4.68;;;3.05;;
58876;SDS011;44659;47.002;9.536;2024-01-07T00:17:17;4.90;;;3.10;;
58876;SDS011;44659;47.002;9.536;2024-01-07T00:19:42;5.03;;;3.28;;
58876;SDS011;44659;47.002;9.536;2024-01-07T00:22:08;4.75;;;3.03;;
58876;SDS011;44659;47.002;9.536;2024-01-07T00:24:34;4.43;;;2.90;;
58876;SDS011;44659;47.002;9.536;2024-01-07T00:26:59;4.35;;;2.85;;
58876;SDS011;44659;47.002;9.536;2024-01-07T00:29:25;4.63;;;3.05;;
58876;SDS011;44659;47.002;9.536;2024-01-07T00:31:51;4.35;;;2.90;;
58876;SDS011;44659;47.002;9.536;2024-01-07T00:34:16;3.70;;;2.50;;
58876;SDS011;44659;47.002;9.536;2024-01-07T00:36:42;3.58;;;2.30;;
58876;SDS011;44659;47.002;9.536;2024-01-07T00:39:07;3.50;;;2.30;;
58876;SDS011;44659;47.002;9.536;2024-01-07T00:41:33;3.60;;;2.30;;
58876;SDS011;44659;47.002;9.536;2024-01-07T00:43:59;4.22;;;2.10;;
58876;SDS011;44659;47.002;9.536;2024-01-07T00:46:24;2.78;;;2.00;;
58876;SDS011;44659;47.002;9.536;2024-01-07T00:48:50;3.42;;;2.20;;
58876;SDS011;44659;47.002;9.536;2024-01-07T00:51:16;3.80;;;2.35;;
58876;SDS011;44659;47.002;9.536;2024-01-07T00:53:41;3.80;;;2.00;;
58876;SDS011;44659;47.002;9.536;2024-01-07T00:56:07;2.72;;;1.70;;
58876;SDS011;44659;47.002;9.536;2024-01-07T00:58:33;2.38;;;1.50;;
58876;SDS011;44659;47.002;9.536;2024-01-07T01:00:59;2.72;;;1.90;;
58876;SDS011;44659;47.002;9.536;2024-01-07T01:03:25;2.83;;;1.83;;
58876;SDS011;44659;47.002;9.536;2024-01-07T01:05:52;3.17;;;2.10;;
58876;SDS011;44659;47.002;9.536;2024-01-07T01:08:18;2.88;;;2.00;;
58876;SDS011;44659;47.002;9.536;2024-01-07T01:10:44;2.85;;;1.90;;
58876;SDS011;44659;47.002;9.536;2024-01-07T01:13:09;3.40;;;2.30;;
58876;SDS011;44659;47.002;9.536;2024-01-07T01:15:35;3.85;;;1.90;;
58876;SDS011;44659;47.002;9.536;2024-01-07T01:18:01;3.58;;;2.20;;
58876;SDS011;44659;47.002;9.536;2024-01-07T01:20:26;3.70;;;2.40;;
58876;SDS011;44659;47.002;9.536;2024-01-07T01:22:52;4.15;;;2.33;;
58876;SDS011;44659;47.002;9.536;2024-01-07T01:25:18;4.63;;;2.88;;
58876;SDS011;44659;47.002;9.536;2024-01-07T01:27:43;3.53;;;2.30;;
58876;SDS011;44659;47.002;9.536;2024-01-07T01:30:10;3.85;;;2.20;;
58876;SDS011;44659;47.002;9.536;2024-01-07T01:32:36;4.40;;;2.65;;
58876;SDS011;44659;47.002;9.536;2024-01-07T01:35:02;4.53;;;2.60;;
58876;SDS011;44659;47.002;9.536;2024-01-07T01:37:28;4.68;;;2.80;;
58876;SDS011;44659;47.002;9.536;2024-01-07T01:39:54;4.22;;;2.65;;
58876;SDS011;44659;47.002;9.536;2024-01-07T01:42:19;3.65;;;2.38;;
58876;SDS011;44659;47.002;9.536;2024-01-07T01:44:46;4.20;;;2.67;;
58876;SDS011;44659;47.002;9.536;2024-01-07T01:47:11;4.30;;;2.30;;
58876;SDS011;44659;47.002;9.536;2024-01-07T01:49:37;5.03;;;2.47;;
58876;SDS011;44659;47.002;9.536;2024-01-07T01:52:04;3.60;;;2.00;;
58876;SDS011;44659;47.002;9.536;2024-01-07T01:54:30;2.75;;;1.83;;
58876;SDS011;44659;47.002;9.536;2024-01-07T01:56:56;2.50;;;1.50;;
58876;SDS011;44659;47.002;9.536;2024-01-07T01:59:22;2.03;;;1.30;;
58876;SDS011;44659;47.002;9.536;2024-01-07T02:01:49;2.17;;;1.30;;
58876;SDS011;44659;47.002;9.536;2024-01-07T02:04:15;4.25;;;1.90;;
58876;SDS011;44659;47.002;9.536;2024-01-07T02:06:41;1.02;;;0.90;;
58876;SDS011;44659;47.002;9.536;2024-01-07T02:09:07;1.52;;;1.00;;
58876;SDS011;44659;47.002;9.536;2024-01-07T02:11:33;2.05;;;1.23;;
58876;SDS011;44659;47.002;9.536;2024-01-07T02:13:59;2.72;;;1.70;;
58876;SDS011;44659;47.002;9.536;2024-01-07T02:16:24;1.50;;;0.95;;
58876;SDS011;44659;47.002;9.536;2024-01-07T02:18:50;5.82;;;3.33;;
58876;SDS011;44659;47.002;9.536;2024-01-07T02:21:15;3.40;;;2.05;;
58876;SDS011;44659;47.002;9.536;2024-01-07T02:23:41;2.63;;;1.50;;
58876;SDS011;44659;47.002;9.536;2024-01-07T02:26:07;1.10;;;1.00;;
58876;SDS011;44659;47.002;9.536;2024-01-07T02:28:33;1.20;;;0.90;;
58876;SDS011;44659;47.002;9.536;2024-01-07T02:30:59;1.30;;;1.00;;
58876;SDS011;44659;47.002;9.536;2024-01-07T02:33:25;1.20;;;0.90;;
58876;SDS011;44659;47.002;9.536;2024-01-07T02:35:51;1.73;;;1.20;;
58876;SDS011;44659;47.002;9.536;2024-01-07T02:38:16;1.00;;;0.90;;
58876;SDS011;44659;47.002;9.536;2024-01-07T02:40:42;1.50;;;1.08;;
58876;SDS011;44659;47.002;9.536;2024-01-07T02:43:08;1.52;;;1.05;;
58876;SDS011;44659;47.002;9.536;2024-01-07T02:45:34;1.10;;;1.00;;
58876;SDS011;44659;47.002;9.536;2024-01-07T02:47:59;1.48;;;1.10;;
58876;SDS011;44659;47.002;9.536;2024-01-07T02:50:25;1.30;;;0.98;;
58876;SDS011;44659;47.002;9.536;2024-01-07T02:52:51;1.40;;;1.10;;
58876;SDS011;44659;47.002;9.536;2024-01-07T02:55:16;1.75;;;1.20;;
58876;SDS011;44659;47.002;9.536;2024-01-07T02:57:43;1.55;;;1.10;;
58876;SDS011;44659;47.002;9.536;2024-01-07T03:00:09;1.92;;;1.30;;
58876;SDS011;44659;47.002;9.536;2024-01-07T03:02:35;1.85;;;1.25;;
58876;SDS011;44659;47.002;9.536;2024-01-07T03:05:01;1.55;;;1.10;;
58876;SDS011;44659;47.002;9.536;2024-01-07T03:07:27;2.58;;;1.60;;
58876;SDS011;44659;47.002;9.536;2024-01-07T03:09:53;3.90;;;2.17;;
58876;SDS011;44659;47.002;9.536;2024-01-07T03:12:18;3.47;;;2.20;;
58876;SDS011;44659;47.002;9.536;2024-01-07T03:14:44;3.00;;;1.90;;
58876;SDS011;44659;47.002;9.536;2024-01-07T03:17:10;4.22;;;2.42;;
58876;SDS011;44659;47.002;9.536;2024-01-07T03:19:39;1.85;;;1.30;;
58876;SDS011;44659;47.002;9.536;2024-01-07T03:22:05;2.85;;;1.75;;
58876;SDS011;44659;47.002;9.536;2024-01-07T03:24:32;2.55;;;1.60;;
58876;SDS011;44659;47.002;9.536;2024-01-07T03:26:58;3.10;;;2.10;;
58876;SDS011;44659;47.002;9.536;2024-01-07T03:29:24;1.88;;;1.40;;
58876;SDS011;44659;47.002;9.536;2024-01-07T03:31:49;2.00;;;1.10;;
58876;SDS011;44659;47.002;9.536;2024-01-07T03:34:16;1.50;;;1.20;;
58876;SDS011;44659;47.002;9.536;2024-01-07T03:36:42;2.00;;;1.30;;
58876;SDS011;44659;47.002;9.536;2024-01-07T03:39:07;1.73;;;1.13;;
58876;SDS011;44659;47.002;9.536;2024-01-07T03:41:33;1.77;;;1.15;;
58876;SDS011;44659;47.002;9.536;2024-01-07T03:43:59;2.03;;;1.40;;
58876;SDS011;44659;47.002;9.536;2024-01-07T03:46:25;2.28;;;1.40;;
58876;SDS011;44659;47.002;9.536;2024-01-07T03:48:50;2.85;;;1.50;;
58876;SDS011;44659;47.002;9.536;2024-01-07T03:51:16;2.00;;;1.35;;
58876;SDS011;44659;47.002;9.536;2024-01-07T03:53:42;2.03;;;1.30;;
58876;SDS011;44659;47.002;9.536;2024-01-07T03:56:07;2.17;;;1.30;;
58876;SDS011;44659;47.002;9.536;2024-01-07T03:58:33;2.20;;;1.40;;
58876;SDS011;44659;47.002;9.536;2024-01-07T04:01:00;2.75;;;1.50;;
58876;SDS011;44659;47.002;9.536;2024-01-07T04:03:26;2.05;;;1.30;;
58876;SDS011;44659;47.002;9.536;2024-01-07T04:05:51;1.75;;;1.15;;
58876;SDS011;44659;47.002;9.536;2024-01-07T04:08:19;2.25;;;1.40;;
58876;SDS011;44659;47.002;9.536;2024-01-07T04:10:44;2.03;;;1.27;;
58876;SDS011;44659;47.002;9.536;2024-01-07T04:13:10;2.45;;;1.67;;
58876;SDS011;44659;47.002;9.536;2024-01-07T04:15:36;2.08;;;1.38;;
58876;SDS011;44659;47.002;9.536;2024-01-07T04:18:02;3.25;;;2.10;;
58876;SDS011;44659;47.002;9.536;2024-01-07T04:20:29;4.05;;;2.60;;
58876;SDS011;44659;47.002;9.536;2024-01-07T04:22:55;4.30;;;2.95;;
58876;SDS011;44659;47.002;9.536;2024-01-07T04:25:22;4.22;;;2.67;;
58876;SDS011;44659;47.002;9.536;2024-01-07T04:27:48;4.43;;;2.78;;
58876;SDS011;44659;47.002;9.536;2024-01-07T04:30:14;4.10;;;2.55;;
58876;SDS011;44659;47.002;9.536;2024-01-07T04:32:39;4.20;;;2.70;;
58876;SDS011;44659;47.002;9.536;2024-01-07T04:35:05;4.05;;;2.47;;
58876;SDS011;44659;47.002;9.536;2024-01-07T04:37:32;3.83;;;2.28;;
58876;SDS011;44659;47.002;9.536;2024-01-07T04:39:58;3.58;;;2.45;;
58876;SDS011;44659;47.002;9.536;2024-01-07T04:42:24;4.60;;;3.03;;
58876;SDS011;44659;47.002;9.536;2024-01-07T04:44:49;4.82;;;3.28;;
58876;SDS011;44659;47.002;9.536;2024-01-07T04:47:25;4.85;;;3.30;;
58876;SDS011;44659;47.002;9.536;2024-01-07T04:49:53;4.75;;;2.80;;
58876;SDS011;44659;47.002;9.536;2024-01-07T04:52:19;4.43;;;2.67;;
58876;SDS011;44659;47.002;9.536;2024-01-07T04:54:45;4.57;;;2.97;;
58876;SDS011;44659;47.002;9.536;2024-01-07T04:57:10;4.15;;;2.78;;
58876;SDS011;44659;47.002;9.536;2024-01-07T04:59:36;5.28;;;3.22;;
58876;SDS011;44659;47.002;9.536;2024-01-07T05:02:02;5.20;;;3.28;;
58876;SDS011;44659;47.002;9.536;2024-01-07T05:04:28;5.10;;;3.28;;
58876;SDS011;44659;47.002;9.536;2024-01-07T05:06:54;4.97;;;3.00;;
58876;SDS011;44659;47.002;9.536;2024-01-07T05:09:19;5.18;;;3.08;;
58876;SDS011;44659;47.002;9.536;2024-01-07T05:11:45;5.15;;;3.03;;
58876;SDS011;44659;47.002;9.536;2024-01-07T05:14:11;4.78;;;3.17;;
58876;SDS011;44659;47.002;9.536;2024-01-07T05:16:37;5.07;;;3.13;;
58876;SDS011;44659;47.002;9.536;2024-01-07T05:19:02;5.32;;;3.53;;
58876;SDS011;44659;47.002;9.536;2024-01-07T05:21:28;5.72;;;3.90;;
58876;SDS011;44659;47.002;9.536;2024-01-07T05:23:54;5.93;;;3.70;;
58876;SDS011;44659;47.002;9.536;2024-01-07T05:26:21;6.53;;;4.07;;
58876;SDS011;44659;47.002;9.536;2024-01-07T05:28:47;6.82;;;4.55;;
58876;SDS011;44659;47.002;9.536;2024-01-07T05:31:16;6.30;;;4.15;;
58876;SDS011;44659;47.002;9.536;2024-01-07T05:33:43;6.60;;;3.92;;
58876;SDS011;44659;47.002;9.536;2024-01-07T05:36:09;6.65;;;4.50;;
58876;SDS011;44659;47.002;9.536;2024-01-07T05:38:35;7.57;;;5.35;;
58876;SDS011;44659;47.002;9.536;2024-01-07T05:41:01;8.13;;;4.80;;
58876;SDS011;44659;47.002;9.536;2024-01-07T05:43:26;7.63;;;5.10;;
58876;SDS011;44659;47.002;9.536;2024-01-07T05:45:52;6.45;;;5.00;;
58876;SDS011;44659;47.002;9.536;2024-01-07T05:48:21;7.40;;;4.93;;
58876;SDS011;44659;47.002;9.536;2024-01-07T05:50:47;7.38;;;5.38;;
58876;SDS011;44659;47.002;9.536;2024-01-07T05:53:13;8.18;;;5.50;;
58876;SDS011;44659;47.002;9.536;2024-01-07T05:55:38;8.25;;;5.75;;
58876;SDS011;44659;47.002;9.536;2024-01-07T05:58:04;8.45;;;6.03;;
58876;SDS011;44659;47.002;9.536;2024-01-07T06:00:30;11.50;;;5.40;;
58876;SDS011;44659;47.002;9.536;2024-01-07T06:02:56;8.07;;;5.40;;
58876;SDS011;44659;47.002;9.536;2024-01-07T06:05:22;7.68;;;5.25;;
58876;SDS011;44659;47.002;9.536;2024-01-07T06:07:49;7.28;;;5.18;;
58876;SDS011;44659;47.002;9.536;2024-01-07T06:10:14;7.90;;;5.47;;
58876;SDS011;44659;47.002;9.536;2024-01-07T06:12:40;7.03;;;4.97;;
58876;SDS011;44659;47.002;9.536;2024-01-07T06:15:06;8.07;;;5.43;;
58876;SDS011;44659;47.002;9.536;2024-01-07T06:17:32;8.25;;;5.95;;
58876;SDS011;44659;47.002;9.536;2024-01-07T06:19:57;8.25;;;5.72;;
58876;SDS011;44659;47.002;9.536;2024-01-07T06:22:23;7.95;;;5.60;;
58876;SDS011;44659;47.002;9.536;2024-01-07T06:24:49;9.32;;;6.03;;
58876;SDS011;44659;47.002;9.536;2024-01-07T06:27:14;8.02;;;5.63;;
58876;SDS011;44659;47.002;9.536;2024-01-07T06:29:40;8.10;;;5.68;;
58876;SDS011;44659;47.002;9.536;2024-01-07T06:32:06;8.80;;;6.30;;
58876;SDS011;44659;47.002;9.536;2024-01-07T06:34:31;8.70;;;6.03;;
58876;SDS011;44659;47.002;9.536;2024-01-07T06:36:58;8.77;;;6.18;;
58876;SDS011;44659;47.002;9.536;2024-01-07T06:39:24;9.75;;;6.72;;
58876;SDS011;44659;47.002;9.536;2024-01-07T06:41:53;9.30;;;6.28;;
58876;SDS011;44659;47.002;9.536;2024-01-07T06:44:19;9.50;;;6.72;;
58876;SDS011;44659;47.002;9.536;2024-01-07T06:46:45;8.93;;;5.93;;
58876;SDS011;44659;47.002;9.536;2024-01-07T06:49:10;7.82;;;5.45;;
58876;SDS011;44659;47.002;9.536;2024-01-07T06:51:37;8.07;;;5.93;;
58876;SDS011;44659;47.002;9.536;2024-01-07T06:54:03;9.00;;;5.93;;
58876;SDS011;44659;47.002;9.536;2024-01-07T06:56:29;8.38;;;5.55;;
58876;SDS011;44659;47.002;9.536;2024-01-07T06:58:55;7.50;;;5.10;;
58876;SDS011;44659;47.002;9.536;2024-01-07T07:01:21;8.02;;;5.38;;
58876;SDS011;44659;47.002;9.536;2024-01-07T07:03:48;7.78;;;5.10;;
58876;SDS011;44659;47.002;9.536;2024-01-07T07:06:14;9.13;;;5.93;;
58876;SDS011;44659;47.002;9.536;2024-01-07T07:08:40;9.20;;;6.32;;
58876;SDS011;44659;47.002;9.536;2024-01-07T07:11:06;8.82;;;5.88;;
58876;SDS011;44659;47.002;9.536;2024-01-07T07:13:32;9.35;;;6.32;;
58876;SDS011;44659;47.002;9.536;2024-01-07T07:15:58;8.48;;;5.72;;
58876;SDS011;44659;47.002;9.536;2024-01-07T07:18:24;8.43;;;5.78;;
58876;SDS011;44659;47.002;9.536;2024-01-07T07:20:50;7.45;;;4.80;;
58876;SDS011;44659;47.002;9.536;2024-01-07T07:23:16;7.55;;;5.07;;
58876;SDS011;44659;47.002;9.536;2024-01-07T07:25:42;7.28;;;5.30;;
58876;SDS011;44659;47.002;9.536;2024-01-07T07:28:08;8.57;;;5.97;;
58876;SDS011;44659;47.002;9.536;2024-01-07T07:30:33;8.23;;;5.53;;
58876;SDS011;44659;47.002;9.536;2024-01-07T07:32:59;7.78;;;5.75;;
58876;SDS011;44659;47.002;9.536;2024-01-07T07:35:25;8.50;;;5.43;;
58876;SDS011;44659;47.002;9.536;2024-01-07T07:37:50;7.32;;;4.68;;
58876;SDS011;44659;47.002;9.536;2024-01-07T07:40:16;9.20;;;5.32;;
58876;SDS011;44659;47.002;9.536;2024-01-07T07:42:42;7.80;;;5.03;;
58876;SDS011;44659;47.002;9.536;2024-01-07T07:45:08;6.97;;;4.75;;
58876;SDS011;44659;47.002;9.536;2024-01-07T07:47:34;8.10;;;5.45;;
58876;SDS011;44659;47.002;9.536;2024-01-07T07:50:00;6.90;;;4.80;;
58876;SDS011;44659;47.002;9.536;2024-01-07T07:52:27;6.55;;;4.35;;
58876;SDS011;44659;47.002;9.536;2024-01-07T07:54:53;6.15;;;4.03;;
58876;SDS011;44659;47.002;9.536;2024-01-07T07:57:19;6.25;;;4.18;;
58876;SDS011;44659;47.002;9.536;2024-01-07T07:59:47;6.50;;;4.10;;
58876;SDS011;44659;47.002;9.536;2024-01-07T08:02:14;6.88;;;4.00;;
58876;SDS011;44659;47.002;9.536;2024-01-07T08:04:40;6.10;;;3.75;;
58876;SDS011;44659;47.002;9.536;2024-01-07T08:07:08;6.03;;;3.58;;
58876;SDS011;44659;47.002;9.536;2024-01-07T08:09:34;5.35;;;3.58;;
58876;SDS011;44659;47.002;9.536;2024-01-07T08:12:03;5.93;;;3.75;;
58876;SDS011;44659;47.002;9.536;2024-01-07T08:14:30;6.68;;;4.18;;
58876;SDS011;44659;47.002;9.536;2024-01-07T08:16:57;7.30;;;5.00;;
58876;SDS011;44659;47.002;9.536;2024-01-07T08:19:22;11.77;;;7.95;;
58876;SDS011;44659;47.002;9.536;2024-01-07T08:21:48;9.88;;;6.03;;
58876;SDS011;44659;47.002;9.536;2024-01-07T08:24:14;7.70;;;5.13;;
58876;SDS011;44659;47.002;9.536;2024-01-07T08:26:39;7.10;;;4.75;;
58876;SDS011;44659;47.002;9.536;2024-01-07T08:29:05;8.90;;;5.63;;
58876;SDS011;44659;47.002;9.536;2024-01-07T08:31:31;8.85;;;5.80;;
58876;SDS011;44659;47.002;9.536;2024-01-07T08:33:57;8.07;;;5.55;;
58876;SDS011;44659;47.002;9.536;2024-01-07T08:36:22;8.18;;;4.95;;
58876;SDS011;44659;47.002;9.536;2024-01-07T08:38:48;8.85;;;5.85;;
58876;SDS011;44659;47.002;9.536;2024-01-07T08:41:17;8.82;;;6.05;;
58876;SDS011;44659;47.002;9.536;2024-01-07T08:43:43;8.43;;;5.85;;
58876;SDS011;44659;47.002;9.536;2024-01-07T08:46:10;8.48;;;5.78;;
58876;SDS011;44659;47.002;9.536;2024-01-07T08:48:38;7.70;;;5.05;;
58876;SDS011;44659;47.002;9.536;2024-01-07T08:51:04;6.68;;;4.43;;
58876;SDS011;44659;47.002;9.536;2024-01-07T08:53:29;7.57;;;5.07;;
58876;SDS011;44659;47.002;9.536;2024-01-07T08:55:56;7.30;;;4.63;;
58876;SDS011;44659;47.002;9.536;2024-01-07T08:58:21;8.02;;;4.82;;
58876;SDS011;44659;47.002;9.536;2024-01-07T09:00:47;6.28;;;4.28;;
58876;SDS011;44659;47.002;9.536;2024-01-07T09:03:13;6.85;;;4.78;;
58876;SDS011;44659;47.002;9.536;2024-01-07T09:05:38;8.38;;;4.55;;
58876;SDS011;44659;47.002;9.536;2024-01-07T09:08:04;8.82;;;5.35;;
58876;SDS011;44659;47.002;9.536;2024-01-07T09:10:31;7.15;;;4.60;;
58876;SDS011;44659;47.002;9.536;2024-01-07T09:12:58;6.97;;;4.72;;
58876;SDS011;44659;47.002;9.536;2024-01-07T09:15:25;7.88;;;4.97;;
58876;SDS011;44659;47.002;9.536;2024-01-07T09:17:51;9.95;;;5.00;;
58876;SDS011;44659;47.002;9.536;2024-01-07T09:20:16;7.68;;;5.55;;
58876;SDS011;44659;47.002;9.536;2024-01-07T09:22:42;9.18;;;4.88;;
58876;SDS011;44659;47.002;9.536;2024-01-07T09:25:09;7.95;;;4.28;;
58876;SDS011;44659;47.002;9.536;2024-01-07T09:27:35;10.35;;;4.13;;
58876;SDS011;44659;47.002;9.536;2024-01-07T09:30:00;6.93;;;5.00;;
58876;SDS011;44659;47.002;9.536;2024-01-07T09:32:26;8.10;;;4.90;;
58876;SDS011;44659;47.002;9.536;2024-01-07T09:34:52;7.60;;;4.80;;
58876;SDS011;44659;47.002;9.536;2024-01-07T09:37:18;8.00;;;4.43;;
58876;SDS011;44659;47.002;9.536;2024-01-07T09:39:44;5.40;;;3.38;;
58876;SDS011;44659;47.002;9.536;2024-01-07T09:42:14;6.57;;;4.25;;
58876;SDS011;44659;47.002;9.536;2024-01-07T09:44:41;6.97;;;3.75;;
58876;SDS011;44659;47.002;9.536;2024-01-07T09:47:12;6.72;;;3.67;;
58876;SDS011;44659;47.002;9.536;2024-01-07T09:49:40;7.75;;;3.83;;
58876;SDS011;44659;47.002;9.536;2024-01-07T09:52:08;6.57;;;4.45;;
58876;SDS011;44659;47.002;9.536;2024-01-07T09:54:38;6.05;;;3.72;;
58876;SDS011;44659;47.002;9.536;2024-01-07T09:57:05;4.78;;;2.80;;
58876;SDS011;44659;47.002;9.536;2024-01-07T09:59:31;3.70;;;2.30;;
58876;SDS011;44659;47.002;9.536;2024-01-07T10:01:58;6.18;;;4.03;;
58876;SDS011;44659;47.002;9.536;2024-01-07T10:04:24;4.90;;;2.90;;
58876;SDS011;44659;47.002;9.536;2024-01-07T10:06:50;3.85;;;2.13;;
58876;SDS011;44659;47.002;9.536;2024-01-07T10:09:17;2.85;;;1.60;;
58876;SDS011;44659;47.002;9.536;2024-01-07T10:11:46;4.28;;;2.20;;
58876;SDS011;44659;47.002;9.536;2024-01-07T10:14:12;3.05;;;1.80;;
58876;SDS011;44659;47.002;9.536;2024-01-07T10:16:38;2.85;;;1.70;;
58876;SDS011;44659;47.002;9.536;2024-01-07T10:19:04;2.90;;;1.63;;
58876;SDS011;44659;47.002;9.536;2024-01-07T10:21:33;6.35;;;2.92;;
58876;SDS011;44659;47.002;9.536;2024-01-07T10:26:36;3.47;;;2.00;;
58876;SDS011;44659;47.002;9.536;2024-01-07T10:29:05;2.88;;;1.67;;
58876;SDS011;44659;47.002;9.536;2024-01-07T10:31:32;2.55;;;1.73;;
58876;SDS011;44659;47.002;9.536;2024-01-07T10:33:58;2.65;;;1.60;;
58876;SDS011;44659;47.002;9.536;2024-01-07T10:36:24;2.58;;;1.75;;
58876;SDS011;44659;47.002;9.536;2024-01-07T10:38:51;3.63;;;1.85;;
58876;SDS011;44659;47.002;9.536;2024-01-07T10:41:20;3.28;;;2.00;;
58876;SDS011;44659;47.002;9.536;2024-01-07T10:43:47;2.75;;;1.70;;
58876;SDS011;44659;47.002;9.536;2024-01-07T10:46:13;3.45;;;1.83;;
58876;SDS011;44659;47.002;9.536;2024-01-07T10:49:04;2.25;;;1.40;;
58876;SDS011;44659;47.002;9.536;2024-01-07T10:51:29;2.42;;;1.60;;
58876;SDS011;44659;47.002;9.536;2024-01-07T10:53:59;3.30;;;1.75;;
58876;SDS011;44659;47.002;9.536;2024-01-07T10:56:31;2.20;;;1.60;;
58876;SDS011;44659;47.002;9.536;2024-01-07T10:59:04;3.38;;;1.90;;
58876;SDS011;44659;47.002;9.536;2024-01-07T11:01:30;2.85;;;1.65;;
58876;SDS011;44659;47.002;9.536;2024-01-07T11:04:01;5.57;;;2.70;;
58876;SDS011;44659;47.002;9.536;2024-01-07T11:06:33;3.30;;;1.85;;
58876;SDS011;44659;47.002;9.536;2024-01-07T11:09:30;3.22;;;2.00;;
58876;SDS011;44659;47.002;9.536;2024-01-07T11:12:05;2.47;;;1.48;;
58876;SDS011;44659;47.002;9.536;2024-01-07T11:17:05;4.10;;;1.75;;
58876;SDS011;44659;47.002;9.536;2024-01-07T11:19:32;2.92;;;1.80;;
58876;SDS011;44659;47.002;9.536;2024-01-07T11:24:57;2.75;;;1.67;;
58876;SDS011;44659;47.002;9.536;2024-01-07T11:27:30;2.50;;;1.50;;
58876;SDS011;44659;47.002;9.536;2024-01-07T11:29:57;3.38;;;1.88;;
58876;SDS011;44659;47.002;9.536;2024-01-07T11:32:29;2.22;;;1.42;;
58876;SDS011;44659;47.002;9.536;2024-01-07T11:34:55;3.53;;;1.65;;
58876;SDS011;44659;47.002;9.536;2024-01-07T11:37:24;2.63;;;1.60;;
58876;SDS011;44659;47.002;9.536;2024-01-07T11:39:54;2.22;;;1.50;;
58876;SDS011;44659;47.002;9.536;2024-01-07T11:42:21;3.20;;;1.50;;
58876;SDS011;44659;47.002;9.536;2024-01-07T11:47:18;2.95;;;1.60;;
58876;SDS011;44659;47.002;9.536;2024-01-07T11:49:44;2.53;;;1.60;;
58876;SDS011;44659;47.002;9.536;2024-01-07T11:52:11;2.72;;;1.65;;
58876;SDS011;44659;47.002;9.536;2024-01-07T11:54:38;2.92;;;1.50;;
58876;SDS011;44659;47.002;9.536;2024-01-07T11:57:05;2.83;;;1.65;;
58876;SDS011;44659;47.002;9.536;2024-01-07T11:59:31;2.75;;;1.75;;
58876;SDS011;44659;47.002;9.536;2024-01-07T12:01:59;2.40;;;1.42;;
58876;SDS011;44659;47.002;9.536;2024-01-07T12:04:25;2.63;;;1.42;;
58876;SDS011;44659;47.002;9.536;2024-01-07T12:06:51;2.70;;;1.60;;
58876;SDS011;44659;47.002;9.536;2024-01-07T12:09:17;3.70;;;1.90;;
58876;SDS011;44659;47.002;9.536;2024-01-07T12:11:43;3.55;;;1.73;;
58876;SDS011;44659;47.002;9.536;2024-01-07T12:14:10;3.47;;;1.58;;
58876;SDS011;44659;47.002;9.536;2024-01-07T12:16:36;6.10;;;3.42;;
58876;SDS011;44659;47.002;9.536;2024-01-07T12:19:02;2.90;;;1.77;;
58876;SDS011;44659;47.002;9.536;2024-01-07T12:21:28;2.53;;;1.50;;
58876;SDS011;44659;47.002;9.536;2024-01-07T12:23:55;2.28;;;1.52;;
58876;SDS011;44659;47.002;9.536;2024-01-07T12:26:31;2.15;;;1.40;;
58876;SDS011;44659;47.002;9.536;2024-01-07T12:28:59;2.35;;;1.42;;
58876;SDS011;44659;47.002;9.536;2024-01-07T12:31:32;1.90;;;1.30;;
58876;SDS011;44659;47.002;9.536;2024-01-07T12:33:59;2.03;;;1.40;;
58876;SDS011;44659;47.002;9.536;2024-01-07T12:36:25;2.45;;;1.45;;
58876;SDS011;44659;47.002;9.536;2024-01-07T12:38:51;1.80;;;1.30;;
58876;SDS011;44659;47.002;9.536;2024-01-07T12:41:19;2.45;;;1.33;;
58876;SDS011;44659;47.002;9.536;2024-01-07T12:43:46;2.00;;;1.23;;
58876;SDS011;44659;47.002;9.536;2024-01-07T12:46:11;2.33;;;1.23;;
58876;SDS011;44659;47.002;9.536;2024-01-07T12:48:38;2.83;;;1.50;;
58876;SDS011;44659;47.002;9.536;2024-01-07T12:51:04;2.05;;;1.30;;
58876;SDS011;44659;47.002;9.536;2024-01-07T12:53:29;3.70;;;1.90;;
58876;SDS011;44659;47.002;9.536;2024-01-07T12:55:56;2.25;;;1.42;;
58876;SDS011;44659;47.002;9.536;2024-01-07T12:58:23;2.90;;;1.13;;
58876;SDS011;44659;47.002;9.536;2024-01-07T13:00:49;2.97;;;1.63;;
58876;SDS011;44659;47.002;9.536;2024-01-07T13:03:15;2.97;;;1.65;;
58876;SDS011;44659;47.002;9.536;2024-01-07T13:05:44;3.53;;;1.70;;
58876;SDS011;44659;47.002;9.536;2024-01-07T13:08:14;3.50;;;1.70;;
58876;SDS011;44659;47.002;9.536;2024-01-07T13:10:40;2.38;;;1.52;;
58876;SDS011;44659;47.002;9.536;2024-01-07T13:13:05;2.50;;;1.55;;
58876;SDS011;44659;47.002;9.536;2024-01-07T13:15:31;2.20;;;1.33;;
58876;SDS011;44659;47.002;9.536;2024-01-07T13:17:57;2.15;;;1.45;;
58876;SDS011;44659;47.002;9.536;2024-01-07T13:20:23;2.28;;;1.48;;
58876;SDS011;44659;47.002;9.536;2024-01-07T13:22:49;2.45;;;1.40;;
58876;SDS011;44659;47.002;9.536;2024-01-07T13:25:15;2.65;;;1.50;;
58876;SDS011;44659;47.002;9.536;2024-01-07T13:27:41;2.42;;;1.50;;
58876;SDS011;44659;47.002;9.536;2024-01-07T13:30:10;2.13;;;1.40;;
58876;SDS011;44659;47.002;9.536;2024-01-07T13:32:36;2.47;;;1.50;;
58876;SDS011;44659;47.002;9.536;2024-01-07T13:35:06;2.08;;;1.38;;
58876;SDS011;44659;47.002;9.536;2024-01-07T13:37:38;4.60;;;1.48;;
58876;SDS011;44659;47.002;9.536;2024-01-07T13:40:08;2.65;;;1.60;;
58876;SDS011;44659;47.002;9.536;2024-01-07T13:42:38;1.98;;;1.17;;
58876;SDS011;44659;47.002;9.536;2024-01-07T13:45:07;2.45;;;1.60;;
58876;SDS011;44659;47.002;9.536;2024-01-07T13:47:33;1.80;;;1.33;;
58876;SDS011;44659;47.002;9.536;2024-01-07T13:50:01;3.90;;;1.70;;
58876;SDS011;44659;47.002;9.536;2024-01-07T13:52:28;2.72;;;1.60;;
58876;SDS011;44659;47.002;9.536;2024-01-07T13:54:55;2.67;;;1.55;;
58876;SDS011;44659;47.002;9.536;2024-01-07T13:57:20;2.70;;;1.50;;
58876;SDS011;44659;47.002;9.536;2024-01-07T13:59:46;3.05;;;1.70;;
58876;SDS011;44659;47.002;9.536;2024-01-07T14:02:12;4.22;;;2.25;;
58876;SDS011;44659;47.002;9.536;2024-01-07T14:04:38;2.25;;;1.40;;
58876;SDS011;44659;47.002;9.536;2024-01-07T14:07:03;2.85;;;1.60;;
58876;SDS011;44659;47.002;9.536;2024-01-07T14:09:29;2.65;;;1.50;;
58876;SDS011;44659;47.002;9.536;2024-01-07T14:11:57;3.47;;;1.80;;
58876;SDS011;44659;47.002;9.536;2024-01-07T14:14:23;3.15;;;1.90;;
58876;SDS011;44659;47.002;9.536;2024-01-07T14:16:49;3.10;;;1.88;;
58876;SDS011;44659;47.002;9.536;2024-01-07T14:19:15;2.13;;;1.50;;
58876;SDS011;44659;47.002;9.536;2024-01-07T14:21:41;3.47;;;1.70;;
58876;SDS011;44659;47.002;9.536;2024-01-07T14:24:07;4.63;;;2.50;;
58876;SDS011;44659;47.002;9.536;2024-01-07T14:26:33;3.58;;;1.95;;
58876;SDS011;44659;47.002;9.536;2024-01-07T14:28:58;4.93;;;2.30;;
58876;SDS011;44659;47.002;9.536;2024-01-07T14:31:24;3.33;;;2.00;;
58876;SDS011;44659;47.002;9.536;2024-01-07T14:33:50;3.88;;;1.80;;
58876;SDS011;44659;47.002;9.536;2024-01-07T14:36:16;3.95;;;2.13;;
58876;SDS011;44659;47.002;9.536;2024-01-07T14:38:43;4.97;;;2.35;;
58876;SDS011;44659;47.002;9.536;2024-01-07T14:41:10;3.03;;;1.90;;
58876;SDS011;44659;47.002;9.536;2024-01-07T14:43:36;3.03;;;1.70;;
58876;SDS011;44659;47.002;9.536;2024-01-07T14:46:02;3.55;;;2.00;;
58876;SDS011;44659;47.002;9.536;2024-01-07T14:48:28;2.97;;;1.80;;
58876;SDS011;44659;47.002;9.536;2024-01-07T14:50:55;4.13;;;2.30;;
58876;SDS011;44659;47.002;9.536;2024-01-07T14:53:20;4.18;;;2.25;;